sensor_id;sensor_type;location;lat;lon;timestamp;temperature;humidity
3630;DHT22;1831;53.626;10.012;2022-10-16T00:02:22;19.90;76.70
3630;DHT22;1831;53.626;10.012;2022-10-16T00:04:49;20.00;76.90
3630;DHT22;1831;53.626;10.012;2022-10-16T00:07:15;20.00;76.60
3630;DHT22;1831;53.626;10.012;2022-10-16T00:09:42;20.00;76.50
3630;DHT22;1831;53.626;10.012;2022-10-16T00:12:09;20.00;76.10
3630;DHT22;1831;53.626;10.012;2022-10-16T00:14:36;19.80;75.90
3630;DHT22;1831;53.626;10.012;2022-10-16T00:17:04;19.80;76.20
3630;DHT22;1831;53.626;10.012;2022-10-16T00:19:31;19.80;75.60
3630;DHT22;1831;53.626;10.012;2022-10-16T00:21:58;19.50;76.40
3630;DHT22;1831;53.626;10.012;2022-10-16T00:24:24;19.60;77.00
3630;DHT22;1831;53.626;10.012;2022-10-16T00:26:51;19.90;76.00
3630;DHT22;1831;53.626;10.012;2022-10-16T00:29:18;20.10;75.50
3630;DHT22;1831;53.626;10.012;2022-10-16T00:31:45;20.00;74.90
3630;DHT22;1831;53.626;10.012;2022-10-16T00:34:13;20.00;74.10
3630;DHT22;1831;53.626;10.012;2022-10-16T00:36:40;20.00;74.20
3630;DHT22;1831;53.626;10.012;2022-10-16T00:39:07;20.10;73.90
3630;DHT22;1831;53.626;10.012;2022-10-16T00:41:34;19.90;73.20
3630;DHT22;1831;53.626;10.012;2022-10-16T00:44:03;20.00;73.50
3630;DHT22;1831;53.626;10.012;2022-10-16T00:46:35;19.90;73.20
3630;DHT22;1831;53.626;10.012;2022-10-16T00:49:06;20.10;73.10
3630;DHT22;1831;53.626;10.012;2022-10-16T00:51:36;20.00;73.20
3630;DHT22;1831;53.626;10.012;2022-10-16T00:54:08;20.00;72.80
3630;DHT22;1831;53.626;10.012;2022-10-16T00:56:35;19.80;72.50
3630;DHT22;1831;53.626;10.012;2022-10-16T00:59:04;19.80;72.30
3630;DHT22;1831;53.626;10.012;2022-10-16T01:01:33;19.80;72.00
3630;DHT22;1831;53.626;10.012;2022-10-16T01:03:59;19.80;71.90
3630;DHT22;1831;53.626;10.012;2022-10-16T01:06:32;19.90;71.60
3630;DHT22;1831;53.626;10.012;2022-10-16T01:09:14;20.00;71.30
3630;DHT22;1831;53.626;10.012;2022-10-16T01:11:49;20.10;71.10
3630;DHT22;1831;53.626;10.012;2022-10-16T01:14:23;20.00;71.00
3630;DHT22;1831;53.626;10.012;2022-10-16T01:16:57;20.00;70.70
3630;DHT22;1831;53.626;10.012;2022-10-16T01:19:40;19.90;70.30
3630;DHT22;1831;53.626;10.012;2022-10-16T01:22:11;20.00;70.80
3630;DHT22;1831;53.626;10.012;2022-10-16T01:24:40;19.70;70.10
3630;DHT22;1831;53.626;10.012;2022-10-16T01:27:12;19.70;70.60
3630;DHT22;1831;53.626;10.012;2022-10-16T01:29:45;19.80;70.80
3630;DHT22;1831;53.626;10.012;2022-10-16T01:32:17;19.80;70.50
3630;DHT22;1831;53.626;10.012;2022-10-16T01:34:49;19.70;70.40
3630;DHT22;1831;53.626;10.012;2022-10-16T01:37:25;19.60;70.70
3630;DHT22;1831;53.626;10.012;2022-10-16T01:39:57;19.60;70.40
3630;DHT22;1831;53.626;10.012;2022-10-16T01:42:30;19.60;71.10
3630;DHT22;1831;53.626;10.012;2022-10-16T01:44:59;19.50;70.60
3630;DHT22;1831;53.626;10.012;2022-10-16T01:47:27;19.40;70.60
3630;DHT22;1831;53.626;10.012;2022-10-16T01:49:58;19.30;70.80
3630;DHT22;1831;53.626;10.012;2022-10-16T01:52:27;19.10;71.20
3630;DHT22;1831;53.626;10.012;2022-10-16T01:54:56;19.20;71.00
3630;DHT22;1831;53.626;10.012;2022-10-16T01:57:26;19.40;70.80
3630;DHT22;1831;53.626;10.012;2022-10-16T01:59:58;19.40;70.50
3630;DHT22;1831;53.626;10.012;2022-10-16T02:02:28;19.40;70.30
3630;DHT22;1831;53.626;10.012;2022-10-16T02:04:59;19.40;70.40
3630;DHT22;1831;53.626;10.012;2022-10-16T02:07:28;19.50;70.10
3630;DHT22;1831;53.626;10.012;2022-10-16T02:09:55;19.50;70.00
3630;DHT22;1831;53.626;10.012;2022-10-16T02:12:28;19.60;69.90
3630;DHT22;1831;53.626;10.012;2022-10-16T02:14:56;19.50;69.80
3630;DHT22;1831;53.626;10.012;2022-10-16T02:17:23;19.30;69.80
3630;DHT22;1831;53.626;10.012;2022-10-16T02:19:53;19.20;70.80
3630;DHT22;1831;53.626;10.012;2022-10-16T02:22:24;19.50;70.40
3630;DHT22;1831;53.626;10.012;2022-10-16T02:24:57;19.40;69.90
3630;DHT22;1831;53.626;10.012;2022-10-16T02:27:29;19.40;70.00
3630;DHT22;1831;53.626;10.012;2022-10-16T02:30:02;19.20;70.10
3630;DHT22;1831;53.626;10.012;2022-10-16T02:32:34;19.20;70.40
3630;DHT22;1831;53.626;10.012;2022-10-16T02:35:03;19.00;70.70
3630;DHT22;1831;53.626;10.012;2022-10-16T02:37:30;18.90;70.70
3630;DHT22;1831;53.626;10.012;2022-10-16T02:39:58;19.10;70.50
3630;DHT22;1831;53.626;10.012;2022-10-16T02:42:29;19.00;70.10
3630;DHT22;1831;53.626;10.012;2022-10-16T02:44:59;18.70;70.90
3630;DHT22;1831;53.626;10.012;2022-10-16T02:47:26;18.90;71.40
3630;DHT22;1831;53.626;10.012;2022-10-16T02:49:53;19.10;70.50
3630;DHT22;1831;53.626;10.012;2022-10-16T02:52:20;19.10;70.30
3630;DHT22;1831;53.626;10.012;2022-10-16T02:54:47;19.10;70.00
3630;DHT22;1831;53.626;10.012;2022-10-16T02:57:14;18.90;70.00
3630;DHT22;1831;53.626;10.012;2022-10-16T02:59:42;18.70;70.40
3630;DHT22;1831;53.626;10.012;2022-10-16T03:02:09;18.90;70.60
3630;DHT22;1831;53.626;10.012;2022-10-16T03:04:36;19.20;70.20
3630;DHT22;1831;53.626;10.012;2022-10-16T03:07:03;19.30;69.50
3630;DHT22;1831;53.626;10.012;2022-10-16T03:09:30;19.40;69.10
3630;DHT22;1831;53.626;10.012;2022-10-16T03:11:57;19.40;69.40
3630;DHT22;1831;53.626;10.012;2022-10-16T03:14:24;19.40;69.30
3630;DHT22;1831;53.626;10.012;2022-10-16T03:16:52;19.40;69.10
3630;DHT22;1831;53.626;10.012;2022-10-16T03:19:19;19.60;69.40
3630;DHT22;1831;53.626;10.012;2022-10-16T03:21:45;19.50;69.00
3630;DHT22;1831;53.626;10.012;2022-10-16T03:24:12;19.40;68.90
3630;DHT22;1831;53.626;10.012;2022-10-16T03:26:39;19.30;68.90
3630;DHT22;1831;53.626;10.012;2022-10-16T03:29:06;19.20;69.40
3630;DHT22;1831;53.626;10.012;2022-10-16T03:31:33;19.20;69.40
3630;DHT22;1831;53.626;10.012;2022-10-16T03:34:01;19.40;69.30
3630;DHT22;1831;53.626;10.012;2022-10-16T03:36:28;19.40;69.00
3630;DHT22;1831;53.626;10.012;2022-10-16T03:38:55;19.40;68.80
3630;DHT22;1831;53.626;10.012;2022-10-16T03:41:21;19.50;68.80
3630;DHT22;1831;53.626;10.012;2022-10-16T03:43:48;19.50;68.80
3630;DHT22;1831;53.626;10.012;2022-10-16T03:46:15;19.50;68.90
3630;DHT22;1831;53.626;10.012;2022-10-16T03:48:42;19.50;69.00
3630;DHT22;1831;53.626;10.012;2022-10-16T03:51:10;19.50;69.00
3630;DHT22;1831;53.626;10.012;2022-10-16T03:53:37;19.50;68.80
3630;DHT22;1831;53.626;10.012;2022-10-16T03:56:04;19.50;68.80
3630;DHT22;1831;53.626;10.012;2022-10-16T03:58:31;19.40;69.00
3630;DHT22;1831;53.626;10.012;2022-10-16T04:00:58;19.30;69.00
3630;DHT22;1831;53.626;10.012;2022-10-16T04:03:25;19.20;69.20
3630;DHT22;1831;53.626;10.012;2022-10-16T04:05:51;19.10;69.50
3630;DHT22;1831;53.626;10.012;2022-10-16T04:08:20;19.20;69.30
3630;DHT22;1831;53.626;10.012;2022-10-16T04:10:47;19.20;69.30
3630;DHT22;1831;53.626;10.012;2022-10-16T04:13:13;19.10;69.30
3630;DHT22;1831;53.626;10.012;2022-10-16T04:15:41;19.30;70.10
3630;DHT22;1831;53.626;10.012;2022-10-16T04:18:07;19.10;69.00
3630;DHT22;1831;53.626;10.012;2022-10-16T04:20:34;19.10;69.40
3630;DHT22;1831;53.626;10.012;2022-10-16T04:23:01;19.10;69.30
3630;DHT22;1831;53.626;10.012;2022-10-16T04:25:30;19.00;69.30
3630;DHT22;1831;53.626;10.012;2022-10-16T04:27:57;19.10;69.30
3630;DHT22;1831;53.626;10.012;2022-10-16T04:30:24;19.20;69.10
3630;DHT22;1831;53.626;10.012;2022-10-16T04:32:51;19.20;68.60
3630;DHT22;1831;53.626;10.012;2022-10-16T04:35:20;19.00;69.20
3630;DHT22;1831;53.626;10.012;2022-10-16T04:37:46;19.10;69.00
3630;DHT22;1831;53.626;10.012;2022-10-16T04:40:14;19.10;69.00
3630;DHT22;1831;53.626;10.012;2022-10-16T04:42:42;19.30;68.80
3630;DHT22;1831;53.626;10.012;2022-10-16T04:45:09;19.20;68.50
3630;DHT22;1831;53.626;10.012;2022-10-16T04:47:36;19.30;68.60
3630;DHT22;1831;53.626;10.012;2022-10-16T04:50:04;19.30;68.50
3630;DHT22;1831;53.626;10.012;2022-10-16T04:52:31;19.30;68.50
3630;DHT22;1831;53.626;10.012;2022-10-16T04:54:58;19.30;68.60
3630;DHT22;1831;53.626;10.012;2022-10-16T04:57:27;19.40;68.50
3630;DHT22;1831;53.626;10.012;2022-10-16T04:59:56;19.40;68.30
3630;DHT22;1831;53.626;10.012;2022-10-16T05:02:22;19.40;68.50
3630;DHT22;1831;53.626;10.012;2022-10-16T05:04:49;19.30;68.30
3630;DHT22;1831;53.626;10.012;2022-10-16T05:07:16;19.40;68.50
3630;DHT22;1831;53.626;10.012;2022-10-16T05:09:43;19.20;68.60
3630;DHT22;1831;53.626;10.012;2022-10-16T05:12:10;19.00;68.90
3630;DHT22;1831;53.626;10.012;2022-10-16T05:14:37;19.00;69.30
3630;DHT22;1831;53.626;10.012;2022-10-16T05:17:05;19.20;69.30
3630;DHT22;1831;53.626;10.012;2022-10-16T05:19:32;19.30;69.30
3630;DHT22;1831;53.626;10.012;2022-10-16T05:21:58;19.40;69.00
3630;DHT22;1831;53.626;10.012;2022-10-16T05:24:25;19.20;69.00
3630;DHT22;1831;53.626;10.012;2022-10-16T05:26:52;19.10;69.60
3630;DHT22;1831;53.626;10.012;2022-10-16T05:29:19;18.90;69.90
3630;DHT22;1831;53.626;10.012;2022-10-16T05:31:46;19.00;70.00
3630;DHT22;1831;53.626;10.012;2022-10-16T05:34:17;19.10;69.80
3630;DHT22;1831;53.626;10.012;2022-10-16T05:36:44;19.20;69.70
3630;DHT22;1831;53.626;10.012;2022-10-16T05:39:11;19.20;69.60
3630;DHT22;1831;53.626;10.012;2022-10-16T05:41:40;19.20;69.60
3630;DHT22;1831;53.626;10.012;2022-10-16T05:44:06;19.20;69.70
3630;DHT22;1831;53.626;10.012;2022-10-16T05:46:33;19.10;70.00
3630;DHT22;1831;53.626;10.012;2022-10-16T05:49:01;19.10;70.10
3630;DHT22;1831;53.626;10.012;2022-10-16T05:51:29;19.20;70.00
3630;DHT22;1831;53.626;10.012;2022-10-16T05:53:56;19.30;70.10
3630;DHT22;1831;53.626;10.012;2022-10-16T05:56:22;19.20;69.90
3630;DHT22;1831;53.626;10.012;2022-10-16T05:58:49;19.20;70.20
3630;DHT22;1831;53.626;10.012;2022-10-16T06:01:19;19.30;70.20
3630;DHT22;1831;53.626;10.012;2022-10-16T06:03:49;19.30;70.10
3630;DHT22;1831;53.626;10.012;2022-10-16T06:06:18;19.40;70.00
3630;DHT22;1831;53.626;10.012;2022-10-16T06:08:47;19.50;69.90
3630;DHT22;1831;53.626;10.012;2022-10-16T06:11:16;19.60;69.80
3630;DHT22;1831;53.626;10.012;2022-10-16T06:13:43;19.50;69.80
3630;DHT22;1831;53.626;10.012;2022-10-16T06:16:12;19.60;69.70
3630;DHT22;1831;53.626;10.012;2022-10-16T06:18:39;19.50;69.80
3630;DHT22;1831;53.626;10.012;2022-10-16T06:21:10;19.50;69.90
3630;DHT22;1831;53.626;10.012;2022-10-16T06:23:37;19.50;69.90
3630;DHT22;1831;53.626;10.012;2022-10-16T06:26:06;19.50;69.80
3630;DHT22;1831;53.626;10.012;2022-10-16T06:28:33;19.70;69.90
3630;DHT22;1831;53.626;10.012;2022-10-16T06:31:00;19.70;69.80
3630;DHT22;1831;53.626;10.012;2022-10-16T06:33:27;19.60;70.00
3630;DHT22;1831;53.626;10.012;2022-10-16T06:36:00;19.40;70.50
3630;DHT22;1831;53.626;10.012;2022-10-16T06:38:27;19.30;71.00
3630;DHT22;1831;53.626;10.012;2022-10-16T06:40:53;19.50;70.70
3630;DHT22;1831;53.626;10.012;2022-10-16T06:43:22;19.60;70.30
3630;DHT22;1831;53.626;10.012;2022-10-16T06:45:51;19.50;70.20
3630;DHT22;1831;53.626;10.012;2022-10-16T06:48:18;19.50;70.50
3630;DHT22;1831;53.626;10.012;2022-10-16T06:50:55;19.60;70.30
3630;DHT22;1831;53.626;10.012;2022-10-16T06:53:22;19.60;70.30
3630;DHT22;1831;53.626;10.012;2022-10-16T06:55:49;19.60;70.30
3630;DHT22;1831;53.626;10.012;2022-10-16T06:58:16;19.70;70.10
3630;DHT22;1831;53.626;10.012;2022-10-16T07:00:45;19.80;70.40
3630;DHT22;1831;53.626;10.012;2022-10-16T07:03:12;19.70;70.20
3630;DHT22;1831;53.626;10.012;2022-10-16T07:05:39;19.70;70.60
3630;DHT22;1831;53.626;10.012;2022-10-16T07:08:06;19.60;70.60
3630;DHT22;1831;53.626;10.012;2022-10-16T07:10:33;19.60;71.00
3630;DHT22;1831;53.626;10.012;2022-10-16T07:13:00;19.80;70.90
3630;DHT22;1831;53.626;10.012;2022-10-16T07:15:27;19.90;70.80
3630;DHT22;1831;53.626;10.012;2022-10-16T07:17:55;20.00;70.70
3630;DHT22;1831;53.626;10.012;2022-10-16T07:20:22;19.90;70.80
3630;DHT22;1831;53.626;10.012;2022-10-16T07:22:49;19.70;71.00
3630;DHT22;1831;53.626;10.012;2022-10-16T07:25:16;19.80;71.20
3630;DHT22;1831;53.626;10.012;2022-10-16T07:27:42;19.80;71.40
3630;DHT22;1831;53.626;10.012;2022-10-16T07:30:10;19.80;71.30
3630;DHT22;1831;53.626;10.012;2022-10-16T07:32:37;20.00;71.20
3630;DHT22;1831;53.626;10.012;2022-10-16T07:35:06;19.90;71.10
3630;DHT22;1831;53.626;10.012;2022-10-16T07:37:33;19.70;71.90
3630;DHT22;1831;53.626;10.012;2022-10-16T07:40:00;19.70;71.70
3630;DHT22;1831;53.626;10.012;2022-10-16T07:42:27;19.70;72.00
3630;DHT22;1831;53.626;10.012;2022-10-16T07:44:54;19.30;72.70
3630;DHT22;1831;53.626;10.012;2022-10-16T07:47:21;18.80;74.40
3630;DHT22;1831;53.626;10.012;2022-10-16T07:49:48;19.10;74.50
3630;DHT22;1831;53.626;10.012;2022-10-16T07:52:16;19.40;74.00
3630;DHT22;1831;53.626;10.012;2022-10-16T07:54:43;19.50;73.40
3630;DHT22;1831;53.626;10.012;2022-10-16T07:57:10;19.30;73.70
3630;DHT22;1831;53.626;10.012;2022-10-16T07:59:37;19.30;74.20
3630;DHT22;1831;53.626;10.012;2022-10-16T08:02:03;19.30;74.30
3630;DHT22;1831;53.626;10.012;2022-10-16T08:04:30;19.60;73.80
3630;DHT22;1831;53.626;10.012;2022-10-16T08:06:57;19.80;73.10
3630;DHT22;1831;53.626;10.012;2022-10-16T08:09:25;19.60;73.20
3630;DHT22;1831;53.626;10.012;2022-10-16T08:11:52;19.60;73.60
3630;DHT22;1831;53.626;10.012;2022-10-16T08:14:19;19.60;73.30
3630;DHT22;1831;53.626;10.012;2022-10-16T08:16:46;19.70;72.90
3630;DHT22;1831;53.626;10.012;2022-10-16T08:19:13;19.50;73.60
3630;DHT22;1831;53.626;10.012;2022-10-16T08:21:41;19.40;73.60
3630;DHT22;1831;53.626;10.012;2022-10-16T08:24:07;19.60;73.60
3630;DHT22;1831;53.626;10.012;2022-10-16T08:26:36;19.40;73.90
3630;DHT22;1831;53.626;10.012;2022-10-16T08:29:03;19.40;74.60
3630;DHT22;1831;53.626;10.012;2022-10-16T08:31:30;19.40;74.70
3630;DHT22;1831;53.626;10.012;2022-10-16T08:33:56;19.50;74.40
3630;DHT22;1831;53.626;10.012;2022-10-16T08:36:23;19.50;74.40
3630;DHT22;1831;53.626;10.012;2022-10-16T08:38:50;19.60;74.30
3630;DHT22;1831;53.626;10.012;2022-10-16T08:41:27;19.80;73.50
3630;DHT22;1831;53.626;10.012;2022-10-16T08:44:22;19.80;73.60
3630;DHT22;1831;53.626;10.012;2022-10-16T08:46:58;19.70;73.50
3630;DHT22;1831;53.626;10.012;2022-10-16T08:49:29;19.70;73.40
3630;DHT22;1831;53.626;10.012;2022-10-16T08:51:56;19.70;73.40
3630;DHT22;1831;53.626;10.012;2022-10-16T08:54:29;19.90;73.30
3630;DHT22;1831;53.626;10.012;2022-10-16T08:57:07;19.90;73.20
3630;DHT22;1831;53.626;10.012;2022-10-16T08:59:36;19.80;73.30
3630;DHT22;1831;53.626;10.012;2022-10-16T09:02:18;19.70;73.70
3630;DHT22;1831;53.626;10.012;2022-10-16T09:05:00;19.60;74.10
3630;DHT22;1831;53.626;10.012;2022-10-16T09:07:34;19.70;73.70
3630;DHT22;1831;53.626;10.012;2022-10-16T09:10:14;20.00;73.30
3630;DHT22;1831;53.626;10.012;2022-10-16T09:12:51;20.10;72.70
3630;DHT22;1831;53.626;10.012;2022-10-16T09:15:28;20.20;72.80
3630;DHT22;1831;53.626;10.012;2022-10-16T09:18:00;20.40;72.50
3630;DHT22;1831;53.626;10.012;2022-10-16T09:20:38;20.00;72.00
3630;DHT22;1831;53.626;10.012;2022-10-16T09:23:18;20.00;72.60
3630;DHT22;1831;53.626;10.012;2022-10-16T09:25:47;20.10;71.80
3630;DHT22;1831;53.626;10.012;2022-10-16T09:28:15;20.30;71.70
3630;DHT22;1831;53.626;10.012;2022-10-16T09:30:45;20.40;71.60
3630;DHT22;1831;53.626;10.012;2022-10-16T09:33:14;20.40;72.00
3630;DHT22;1831;53.626;10.012;2022-10-16T09:35:44;20.30;71.30
3630;DHT22;1831;53.626;10.012;2022-10-16T09:38:22;20.30;71.60
3630;DHT22;1831;53.626;10.012;2022-10-16T09:40:49;19.80;72.40
3630;DHT22;1831;53.626;10.012;2022-10-16T09:43:24;19.70;72.80
3630;DHT22;1831;53.626;10.012;2022-10-16T09:45:59;19.80;72.00
3630;DHT22;1831;53.626;10.012;2022-10-16T09:48:28;19.60;72.00
3630;DHT22;1831;53.626;10.012;2022-10-16T09:50:58;19.70;71.80
3630;DHT22;1831;53.626;10.012;2022-10-16T09:53:37;19.80;71.80
3630;DHT22;1831;53.626;10.012;2022-10-16T09:56:05;19.90;71.50
3630;DHT22;1831;53.626;10.012;2022-10-16T09:58:32;19.90;70.70
3630;DHT22;1831;53.626;10.012;2022-10-16T10:01:01;20.10;70.90
3630;DHT22;1831;53.626;10.012;2022-10-16T10:03:35;20.20;70.30
3630;DHT22;1831;53.626;10.012;2022-10-16T10:06:14;20.10;70.60
3630;DHT22;1831;53.626;10.012;2022-10-16T10:08:56;20.30;70.80
3630;DHT22;1831;53.626;10.012;2022-10-16T10:11:38;20.60;70.10
3630;DHT22;1831;53.626;10.012;2022-10-16T10:14:06;20.80;69.60
3630;DHT22;1831;53.626;10.012;2022-10-16T10:16:34;21.00;69.90
3630;DHT22;1831;53.626;10.012;2022-10-16T10:19:01;20.80;69.20
3630;DHT22;1831;53.626;10.012;2022-10-16T10:21:28;20.70;69.50
3630;DHT22;1831;53.626;10.012;2022-10-16T10:23:55;20.50;70.20
3630;DHT22;1831;53.626;10.012;2022-10-16T10:26:24;20.60;70.10
3630;DHT22;1831;53.626;10.012;2022-10-16T10:29:00;20.70;69.90
3630;DHT22;1831;53.626;10.012;2022-10-16T10:31:36;21.00;69.20
3630;DHT22;1831;53.626;10.012;2022-10-16T10:34:19;20.70;69.30
3630;DHT22;1831;53.626;10.012;2022-10-16T10:36:53;20.70;69.70
3630;DHT22;1831;53.626;10.012;2022-10-16T10:39:27;20.80;69.70
3630;DHT22;1831;53.626;10.012;2022-10-16T10:42:18;20.50;68.90
3630;DHT22;1831;53.626;10.012;2022-10-16T10:45:17;20.50;69.50
3630;DHT22;1831;53.626;10.012;2022-10-16T10:47:59;21.00;69.00
3630;DHT22;1831;53.626;10.012;2022-10-16T10:50:35;21.10;68.20
3630;DHT22;1831;53.626;10.012;2022-10-16T10:53:09;21.10;67.60
3630;DHT22;1831;53.626;10.012;2022-10-16T10:55:43;20.70;68.20
3630;DHT22;1831;53.626;10.012;2022-10-16T11:01:16;20.90;68.00
3630;DHT22;1831;53.626;10.012;2022-10-16T11:04:03;20.90;67.30
3630;DHT22;1831;53.626;10.012;2022-10-16T11:06:40;21.10;66.80
3630;DHT22;1831;53.626;10.012;2022-10-16T11:09:12;20.70;66.50
3630;DHT22;1831;53.626;10.012;2022-10-16T11:11:44;20.90;66.80
3630;DHT22;1831;53.626;10.012;2022-10-16T11:14:16;20.70;66.50
3630;DHT22;1831;53.626;10.012;2022-10-16T11:16:48;20.60;66.40
3630;DHT22;1831;53.626;10.012;2022-10-16T11:19:28;20.50;66.30
3630;DHT22;1831;53.626;10.012;2022-10-16T11:22:03;20.60;66.10
3630;DHT22;1831;53.626;10.012;2022-10-16T11:24:39;20.50;66.00
3630;DHT22;1831;53.626;10.012;2022-10-16T11:27:09;20.20;66.80
3630;DHT22;1831;53.626;10.012;2022-10-16T11:29:45;20.40;66.40
3630;DHT22;1831;53.626;10.012;2022-10-16T11:32:21;20.30;66.60
3630;DHT22;1831;53.626;10.012;2022-10-16T11:34:53;20.60;65.50
3630;DHT22;1831;53.626;10.012;2022-10-16T11:37:25;20.40;65.70
3630;DHT22;1831;53.626;10.012;2022-10-16T11:39:57;20.50;66.00
3630;DHT22;1831;53.626;10.012;2022-10-16T11:42:32;21.00;64.30
3630;DHT22;1831;53.626;10.012;2022-10-16T11:45:08;21.00;64.70
3630;DHT22;1831;53.626;10.012;2022-10-16T11:47:41;20.90;64.60
3630;DHT22;1831;53.626;10.012;2022-10-16T11:50:19;20.70;64.20
3630;DHT22;1831;53.626;10.012;2022-10-16T11:52:53;20.70;64.90
3630;DHT22;1831;53.626;10.012;2022-10-16T11:55:26;20.70;64.20
3630;DHT22;1831;53.626;10.012;2022-10-16T11:57:59;21.00;63.60
3630;DHT22;1831;53.626;10.012;2022-10-16T12:00:33;20.80;63.90
3630;DHT22;1831;53.626;10.012;2022-10-16T12:03:11;21.00;62.80
3630;DHT22;1831;53.626;10.012;2022-10-16T12:05:58;21.00;62.70
3630;DHT22;1831;53.626;10.012;2022-10-16T12:08:28;21.00;63.10
3630;DHT22;1831;53.626;10.012;2022-10-16T12:11:06;21.30;61.80
3630;DHT22;1831;53.626;10.012;2022-10-16T12:13:35;21.30;61.70
3630;DHT22;1831;53.626;10.012;2022-10-16T12:16:07;21.40;61.70
3630;DHT22;1831;53.626;10.012;2022-10-16T12:18:47;21.60;61.20
3630;DHT22;1831;53.626;10.012;2022-10-16T12:21:16;21.40;60.00
3630;DHT22;1831;53.626;10.012;2022-10-16T12:23:49;21.50;60.20
3630;DHT22;1831;53.626;10.012;2022-10-16T12:26:24;21.40;59.90
3630;DHT22;1831;53.626;10.012;2022-10-16T12:28:52;21.40;60.30
3630;DHT22;1831;53.626;10.012;2022-10-16T12:31:19;21.50;60.10
3630;DHT22;1831;53.626;10.012;2022-10-16T12:33:59;21.50;59.90
3630;DHT22;1831;53.626;10.012;2022-10-16T12:36:30;21.70;60.30
3630;DHT22;1831;53.626;10.012;2022-10-16T12:38:59;21.30;59.90
3630;DHT22;1831;53.626;10.012;2022-10-16T12:41:28;21.40;60.50
3630;DHT22;1831;53.626;10.012;2022-10-16T12:43:55;21.60;60.70
3630;DHT22;1831;53.626;10.012;2022-10-16T12:46:38;21.80;59.90
3630;DHT22;1831;53.626;10.012;2022-10-16T12:49:19;21.90;60.30
3630;DHT22;1831;53.626;10.012;2022-10-16T12:51:48;22.20;58.80
3630;DHT22;1831;53.626;10.012;2022-10-16T12:54:17;22.30;58.00
3630;DHT22;1831;53.626;10.012;2022-10-16T12:56:53;22.50;57.90
3630;DHT22;1831;53.626;10.012;2022-10-16T12:59:31;22.40;57.60
3630;DHT22;1831;53.626;10.012;2022-10-16T13:05:16;22.30;57.70
3630;DHT22;1831;53.626;10.012;2022-10-16T13:07:57;22.30;57.30
3630;DHT22;1831;53.626;10.012;2022-10-16T13:10:30;22.00;57.40
3630;DHT22;1831;53.626;10.012;2022-10-16T13:13:29;22.00;57.70
3630;DHT22;1831;53.626;10.012;2022-10-16T13:16:17;22.40;57.40
3630;DHT22;1831;53.626;10.012;2022-10-16T13:18:56;22.20;56.40
3630;DHT22;1831;53.626;10.012;2022-10-16T13:21:38;21.80;56.40
3630;DHT22;1831;53.626;10.012;2022-10-16T13:24:15;22.00;56.50
3630;DHT22;1831;53.626;10.012;2022-10-16T13:26:52;22.20;56.00
3630;DHT22;1831;53.626;10.012;2022-10-16T13:29:20;22.60;55.90
3630;DHT22;1831;53.626;10.012;2022-10-16T13:31:48;22.50;55.50
3630;DHT22;1831;53.626;10.012;2022-10-16T13:34:17;22.30;55.60
3630;DHT22;1831;53.626;10.012;2022-10-16T13:36:47;22.50;55.90
3630;DHT22;1831;53.626;10.012;2022-10-16T13:39:22;23.20;54.80
3630;DHT22;1831;53.626;10.012;2022-10-16T13:42:01;24.20;53.70
3630;DHT22;1831;53.626;10.012;2022-10-16T13:44:34;25.90;51.70
3630;DHT22;1831;53.626;10.012;2022-10-16T13:47:02;27.50;49.40
3630;DHT22;1831;53.626;10.012;2022-10-16T13:49:29;28.80;46.80
3630;DHT22;1831;53.626;10.012;2022-10-16T13:51:57;29.50;43.60
3630;DHT22;1831;53.626;10.012;2022-10-16T13:54:26;30.30;41.80
3630;DHT22;1831;53.626;10.012;2022-10-16T13:56:54;31.00;40.30
3630;DHT22;1831;53.626;10.012;2022-10-16T13:59:26;31.50;39.10
3630;DHT22;1831;53.626;10.012;2022-10-16T14:01:55;31.50;38.50
3630;DHT22;1831;53.626;10.012;2022-10-16T14:04:23;31.80;39.10
3630;DHT22;1831;53.626;10.012;2022-10-16T14:06:51;31.70;38.70
3630;DHT22;1831;53.626;10.012;2022-10-16T14:09:23;31.80;38.10
3630;DHT22;1831;53.626;10.012;2022-10-16T14:11:54;31.90;38.10
3630;DHT22;1831;53.626;10.012;2022-10-16T14:14:23;31.50;38.80
3630;DHT22;1831;53.626;10.012;2022-10-16T14:16:50;30.60;38.80
3630;DHT22;1831;53.626;10.012;2022-10-16T14:19:21;29.50;41.20
3630;DHT22;1831;53.626;10.012;2022-10-16T14:21:49;28.60;42.90
3630;DHT22;1831;53.626;10.012;2022-10-16T14:24:25;27.70;43.60
3630;DHT22;1831;53.626;10.012;2022-10-16T14:26:54;26.80;45.20
3630;DHT22;1831;53.626;10.012;2022-10-16T14:29:23;26.30;46.30
3630;DHT22;1831;53.626;10.012;2022-10-16T14:31:57;25.90;47.20
3630;DHT22;1831;53.626;10.012;2022-10-16T14:34:30;25.50;48.10
3630;DHT22;1831;53.626;10.012;2022-10-16T14:37:00;25.20;49.00
3630;DHT22;1831;53.626;10.012;2022-10-16T14:39:32;25.10;50.10
3630;DHT22;1831;53.626;10.012;2022-10-16T14:42:01;24.80;50.40
3630;DHT22;1831;53.626;10.012;2022-10-16T14:44:31;24.50;51.30
3630;DHT22;1831;53.626;10.012;2022-10-16T14:47:07;24.40;51.60
3630;DHT22;1831;53.626;10.012;2022-10-16T14:49:35;23.90;51.60
3630;DHT22;1831;53.626;10.012;2022-10-16T14:52:08;23.60;52.70
3630;DHT22;1831;53.626;10.012;2022-10-16T14:54:35;23.60;52.50
3630;DHT22;1831;53.626;10.012;2022-10-16T14:57:03;23.50;53.50
3630;DHT22;1831;53.626;10.012;2022-10-16T14:59:33;23.50;53.40
3630;DHT22;1831;53.626;10.012;2022-10-16T15:02:09;23.40;53.40
3630;DHT22;1831;53.626;10.012;2022-10-16T15:04:42;23.40;53.10
3630;DHT22;1831;53.626;10.012;2022-10-16T15:07:09;23.20;53.00
3630;DHT22;1831;53.626;10.012;2022-10-16T15:09:36;23.00;54.00
3630;DHT22;1831;53.626;10.012;2022-10-16T15:12:04;23.10;54.20
3630;DHT22;1831;53.626;10.012;2022-10-16T15:14:31;23.20;54.00
3630;DHT22;1831;53.626;10.012;2022-10-16T15:16:58;23.20;54.30
3630;DHT22;1831;53.626;10.012;2022-10-16T15:19:25;23.30;54.30
3630;DHT22;1831;53.626;10.012;2022-10-16T15:21:52;23.20;53.70
3630;DHT22;1831;53.626;10.012;2022-10-16T15:24:19;23.20;54.20
3630;DHT22;1831;53.626;10.012;2022-10-16T15:26:45;23.20;54.10
3630;DHT22;1831;53.626;10.012;2022-10-16T15:29:14;23.10;53.60
3630;DHT22;1831;53.626;10.012;2022-10-16T15:31:41;23.00;53.80
3630;DHT22;1831;53.626;10.012;2022-10-16T15:34:09;22.70;54.30
3630;DHT22;1831;53.626;10.012;2022-10-16T15:36:38;22.80;54.10
3630;DHT22;1831;53.626;10.012;2022-10-16T15:39:05;22.90;54.30
3630;DHT22;1831;53.626;10.012;2022-10-16T15:41:32;22.90;54.30
3630;DHT22;1831;53.626;10.012;2022-10-16T15:43:59;22.90;54.40
3630;DHT22;1831;53.626;10.012;2022-10-16T15:46:27;22.90;54.60
3630;DHT22;1831;53.626;10.012;2022-10-16T15:48:57;22.80;54.50
3630;DHT22;1831;53.626;10.012;2022-10-16T15:51:26;22.80;54.90
3630;DHT22;1831;53.626;10.012;2022-10-16T15:53:55;22.80;54.90
3630;DHT22;1831;53.626;10.012;2022-10-16T15:56:22;22.80;54.80
3630;DHT22;1831;53.626;10.012;2022-10-16T15:58:51;22.80;55.30
3630;DHT22;1831;53.626;10.012;2022-10-16T16:01:19;22.80;55.10
3630;DHT22;1831;53.626;10.012;2022-10-16T16:03:47;22.70;55.00
3630;DHT22;1831;53.626;10.012;2022-10-16T16:06:14;22.70;55.40
3630;DHT22;1831;53.626;10.012;2022-10-16T16:08:41;22.60;55.50
3630;DHT22;1831;53.626;10.012;2022-10-16T16:11:10;22.60;55.60